sensor_id;sensor_type;location;lat;lon;timestamp;temperature;humidity
4637;DHT22;2331;48.806;9.140;2023-01-29T00:01:07;3.30;1.00
4637;DHT22;2331;48.806;9.140;2023-01-29T00:03:34;3.40;1.00
4637;DHT22;2331;48.806;9.140;2023-01-29T00:06:05;3.30;1.00
4637;DHT22;2331;48.806;9.140;2023-01-29T00:08:32;3.30;1.00
4637;DHT22;2331;48.806;9.140;2023-01-29T00:11:00;3.20;1.00
4637;DHT22;2331;48.806;9.140;2023-01-29T00:13:27;3.10;1.00
4637;DHT22;2331;48.806;9.140;2023-01-29T00:15:53;3.30;1.00
4637;DHT22;2331;48.806;9.140;2023-01-29T00:18:22;3.30;1.00
4637;DHT22;2331;48.806;9.140;2023-01-29T00:20:49;3.20;1.00
4637;DHT22;2331;48.806;9.140;2023-01-29T00:23:16;3.30;1.00
4637;DHT22;2331;48.806;9.140;2023-01-29T00:25:43;3.30;1.00
4637;DHT22;2331;48.806;9.140;2023-01-29T00:28:11;3.30;1.00
4637;DHT22;2331;48.806;9.140;2023-01-29T00:30:38;3.20;1.00
4637;DHT22;2331;48.806;9.140;2023-01-29T00:33:05;3.20;1.00
4637;DHT22;2331;48.806;9.140;2023-01-29T00:35:33;3.20;1.00
4637;DHT22;2331;48.806;9.140;2023-01-29T00:37:59;3.20;1.00
4637;DHT22;2331;48.806;9.140;2023-01-29T00:40:26;3.20;1.00
4637;DHT22;2331;48.806;9.140;2023-01-29T00:43:13;3.20;1.00
4637;DHT22;2331;48.806;9.140;2023-01-29T00:45:57;3.30;1.00
4637;DHT22;2331;48.806;9.140;2023-01-29T00:48:24;3.30;1.00
4637;DHT22;2331;48.806;9.140;2023-01-29T00:50:52;3.30;1.00
4637;DHT22;2331;48.806;9.140;2023-01-29T00:53:19;3.30;1.00
4637;DHT22;2331;48.806;9.140;2023-01-29T00:55:45;3.30;1.00
4637;DHT22;2331;48.806;9.140;2023-01-29T00:58:12;3.30;1.00
4637;DHT22;2331;48.806;9.140;2023-01-29T01:00:40;3.20;1.00
4637;DHT22;2331;48.806;9.140;2023-01-29T01:03:06;3.20;1.00
4637;DHT22;2331;48.806;9.140;2023-01-29T01:05:32;3.20;1.00
4637;DHT22;2331;48.806;9.140;2023-01-29T01:08:01;3.10;1.00
4637;DHT22;2331;48.806;9.140;2023-01-29T01:10:29;3.10;1.00
4637;DHT22;2331;48.806;9.140;2023-01-29T01:12:56;3.00;1.00
4637;DHT22;2331;48.806;9.140;2023-01-29T01:15:26;3.00;1.00
4637;DHT22;2331;48.806;9.140;2023-01-29T01:17:53;3.00;1.00
4637;DHT22;2331;48.806;9.140;2023-01-29T01:20:20;3.00;1.00
4637;DHT22;2331;48.806;9.140;2023-01-29T01:22:47;3.00;1.00
4637;DHT22;2331;48.806;9.140;2023-01-29T01:25:15;3.00;1.00
4637;DHT22;2331;48.806;9.140;2023-01-29T01:27:43;2.80;1.00
4637;DHT22;2331;48.806;9.140;2023-01-29T01:30:11;2.70;1.00
4637;DHT22;2331;48.806;9.140;2023-01-29T01:32:38;2.70;1.00
4637;DHT22;2331;48.806;9.140;2023-01-29T01:35:06;2.60;1.00
4637;DHT22;2331;48.806;9.140;2023-01-29T01:37:33;2.60;1.00
4637;DHT22;2331;48.806;9.140;2023-01-29T01:40:03;2.70;1.00
4637;DHT22;2331;48.806;9.140;2023-01-29T01:42:38;2.70;1.00
4637;DHT22;2331;48.806;9.140;2023-01-29T01:45:07;2.70;1.00
4637;DHT22;2331;48.806;9.140;2023-01-29T01:47:37;2.80;1.00
4637;DHT22;2331;48.806;9.140;2023-01-29T01:50:07;2.70;1.00
4637;DHT22;2331;48.806;9.140;2023-01-29T01:52:37;2.60;1.00
4637;DHT22;2331;48.806;9.140;2023-01-29T01:55:06;2.60;1.00
4637;DHT22;2331;48.806;9.140;2023-01-29T01:57:33;2.60;1.00
4637;DHT22;2331;48.806;9.140;2023-01-29T02:00:05;2.60;1.00
4637;DHT22;2331;48.806;9.140;2023-01-29T02:02:37;2.40;1.00
4637;DHT22;2331;48.806;9.140;2023-01-29T02:05:22;2.40;1.00
4637;DHT22;2331;48.806;9.140;2023-01-29T02:08:06;2.40;1.00
4637;DHT22;2331;48.806;9.140;2023-01-29T02:10:52;2.40;1.00
4637;DHT22;2331;48.806;9.140;2023-01-29T02:13:19;2.50;1.00
4637;DHT22;2331;48.806;9.140;2023-01-29T02:15:47;2.50;1.00
4637;DHT22;2331;48.806;9.140;2023-01-29T02:18:14;2.50;1.00
4637;DHT22;2331;48.806;9.140;2023-01-29T02:20:48;2.60;1.00
4637;DHT22;2331;48.806;9.140;2023-01-29T02:26:21;2.60;1.00
4637;DHT22;2331;48.806;9.140;2023-01-29T02:28:55;2.40;1.00
4637;DHT22;2331;48.806;9.140;2023-01-29T02:31:45;2.40;1.00
4637;DHT22;2331;48.806;9.140;2023-01-29T02:34:17;2.40;1.00
4637;DHT22;2331;48.806;9.140;2023-01-29T02:36:52;2.50;1.00
4637;DHT22;2331;48.806;9.140;2023-01-29T02:39:29;2.50;1.00
4637;DHT22;2331;48.806;9.140;2023-01-29T02:42:04;2.50;1.00
4637;DHT22;2331;48.806;9.140;2023-01-29T02:44:40;2.50;1.00
4637;DHT22;2331;48.806;9.140;2023-01-29T02:47:13;2.40;1.00
4637;DHT22;2331;48.806;9.140;2023-01-29T02:49:45;2.30;1.00
4637;DHT22;2331;48.806;9.140;2023-01-29T02:52:15;2.40;1.00
4637;DHT22;2331;48.806;9.140;2023-01-29T02:54:51;2.30;1.00
4637;DHT22;2331;48.806;9.140;2023-01-29T02:57:21;2.30;1.00
4637;DHT22;2331;48.806;9.140;2023-01-29T02:59:53;2.30;1.00
4637;DHT22;2331;48.806;9.140;2023-01-29T03:02:25;2.40;1.00
4637;DHT22;2331;48.806;9.140;2023-01-29T03:04:58;2.40;1.00
4637;DHT22;2331;48.806;9.140;2023-01-29T03:07:29;2.40;1.00
4637;DHT22;2331;48.806;9.140;2023-01-29T03:10:16;2.40;1.00
4637;DHT22;2331;48.806;9.140;2023-01-29T03:12:49;2.40;1.00
4637;DHT22;2331;48.806;9.140;2023-01-29T03:15:21;2.40;1.00
4637;DHT22;2331;48.806;9.140;2023-01-29T03:17:54;2.30;1.00
4637;DHT22;2331;48.806;9.140;2023-01-29T03:20:25;2.40;1.00
4637;DHT22;2331;48.806;9.140;2023-01-29T03:22:56;2.40;1.00
4637;DHT22;2331;48.806;9.140;2023-01-29T03:25:27;2.30;1.00
4637;DHT22;2331;48.806;9.140;2023-01-29T03:28:13;2.30;1.00
4637;DHT22;2331;48.806;9.140;2023-01-29T03:31:03;2.40;1.00
4637;DHT22;2331;48.806;9.140;2023-01-29T03:33:50;2.30;1.00
4637;DHT22;2331;48.806;9.140;2023-01-29T03:36:21;2.40;1.00
4637;DHT22;2331;48.806;9.140;2023-01-29T03:38:48;2.50;1.00
4637;DHT22;2331;48.806;9.140;2023-01-29T03:41:22;2.50;1.00
4637;DHT22;2331;48.806;9.140;2023-01-29T03:43:54;2.50;1.00
4637;DHT22;2331;48.806;9.140;2023-01-29T03:46:26;2.50;1.00
4637;DHT22;2331;48.806;9.140;2023-01-29T03:49:00;2.60;1.00
4637;DHT22;2331;48.806;9.140;2023-01-29T03:51:35;2.50;1.00
4637;DHT22;2331;48.806;9.140;2023-01-29T03:54:08;2.60;1.00
4637;DHT22;2331;48.806;9.140;2023-01-29T03:56:43;2.50;1.00
4637;DHT22;2331;48.806;9.140;2023-01-29T03:59:19;2.40;1.00
4637;DHT22;2331;48.806;9.140;2023-01-29T04:01:52;2.50;1.00
4637;DHT22;2331;48.806;9.140;2023-01-29T04:04:23;2.50;1.00
4637;DHT22;2331;48.806;9.140;2023-01-29T04:06:53;2.50;1.00
4637;DHT22;2331;48.806;9.140;2023-01-29T04:09:24;2.50;1.00
4637;DHT22;2331;48.806;9.140;2023-01-29T04:11:58;2.60;1.00
4637;DHT22;2331;48.806;9.140;2023-01-29T04:14:26;2.50;1.00
4637;DHT22;2331;48.806;9.140;2023-01-29T04:16:56;2.50;1.00
4637;DHT22;2331;48.806;9.140;2023-01-29T04:19:26;2.40;1.00
4637;DHT22;2331;48.806;9.140;2023-01-29T04:22:00;2.40;1.00
4637;DHT22;2331;48.806;9.140;2023-01-29T04:24:27;2.40;1.00
4637;DHT22;2331;48.806;9.140;2023-01-29T04:26:59;2.40;1.00
4637;DHT22;2331;48.806;9.140;2023-01-29T04:29:42;2.40;1.00
4637;DHT22;2331;48.806;9.140;2023-01-29T04:32:15;2.40;1.00
4637;DHT22;2331;48.806;9.140;2023-01-29T04:34:52;2.30;1.00
4637;DHT22;2331;48.806;9.140;2023-01-29T04:37:28;2.30;1.00
4637;DHT22;2331;48.806;9.140;2023-01-29T04:40:04;2.30;1.00
4637;DHT22;2331;48.806;9.140;2023-01-29T04:42:40;2.30;1.00
4637;DHT22;2331;48.806;9.140;2023-01-29T04:45:16;2.30;1.00
4637;DHT22;2331;48.806;9.140;2023-01-29T04:47:49;2.30;1.00
4637;DHT22;2331;48.806;9.140;2023-01-29T04:50:27;2.30;1.00
4637;DHT22;2331;48.806;9.140;2023-01-29T04:52:58;2.30;1.00
4637;DHT22;2331;48.806;9.140;2023-01-29T04:55:31;2.30;1.00
4637;DHT22;2331;48.806;9.140;2023-01-29T04:58:04;2.20;1.00
4637;DHT22;2331;48.806;9.140;2023-01-29T05:00:36;2.10;1.00
4637;DHT22;2331;48.806;9.140;2023-01-29T05:03:05;2.10;1.00
4637;DHT22;2331;48.806;9.140;2023-01-29T05:05:34;2.10;1.00
4637;DHT22;2331;48.806;9.140;2023-01-29T05:08:03;2.10;1.00
4637;DHT22;2331;48.806;9.140;2023-01-29T05:10:30;2.30;1.00
4637;DHT22;2331;48.806;9.140;2023-01-29T05:12:59;2.30;1.00
4637;DHT22;2331;48.806;9.140;2023-01-29T05:15:32;2.40;1.00
4637;DHT22;2331;48.806;9.140;2023-01-29T05:18:00;2.40;1.00
4637;DHT22;2331;48.806;9.140;2023-01-29T05:20:30;2.40;1.00
4637;DHT22;2331;48.806;9.140;2023-01-29T05:22:57;2.50;1.00
4637;DHT22;2331;48.806;9.140;2023-01-29T05:25:26;2.50;1.00
4637;DHT22;2331;48.806;9.140;2023-01-29T05:27:53;2.50;1.00
4637;DHT22;2331;48.806;9.140;2023-01-29T05:30:33;2.50;1.00
4637;DHT22;2331;48.806;9.140;2023-01-29T05:33:01;2.50;1.00
4637;DHT22;2331;48.806;9.140;2023-01-29T05:35:29;2.50;1.00
4637;DHT22;2331;48.806;9.140;2023-01-29T05:37:56;2.40;1.00
4637;DHT22;2331;48.806;9.140;2023-01-29T05:40:23;2.50;1.00
4637;DHT22;2331;48.806;9.140;2023-01-29T05:42:50;2.50;1.00
4637;DHT22;2331;48.806;9.140;2023-01-29T05:45:17;2.60;1.00
4637;DHT22;2331;48.806;9.140;2023-01-29T05:47:45;2.60;1.00
4637;DHT22;2331;48.806;9.140;2023-01-29T05:50:12;2.60;1.00
4637;DHT22;2331;48.806;9.140;2023-01-29T05:52:41;2.70;1.00
4637;DHT22;2331;48.806;9.140;2023-01-29T05:55:09;2.60;1.00
4637;DHT22;2331;48.806;9.140;2023-01-29T05:57:36;2.50;1.00
4637;DHT22;2331;48.806;9.140;2023-01-29T06:00:04;2.60;1.00
4637;DHT22;2331;48.806;9.140;2023-01-29T06:02:30;2.50;1.00
4637;DHT22;2331;48.806;9.140;2023-01-29T06:04:57;2.50;1.00
4637;DHT22;2331;48.806;9.140;2023-01-29T06:07:24;2.40;1.00
4637;DHT22;2331;48.806;9.140;2023-01-29T06:09:52;2.50;1.00
4637;DHT22;2331;48.806;9.140;2023-01-29T06:12:19;2.50;1.00
4637;DHT22;2331;48.806;9.140;2023-01-29T06:14:45;2.50;1.00
4637;DHT22;2331;48.806;9.140;2023-01-29T06:17:12;2.60;1.00
4637;DHT22;2331;48.806;9.140;2023-01-29T06:19:39;2.60;1.00
4637;DHT22;2331;48.806;9.140;2023-01-29T06:22:05;2.50;1.00
4637;DHT22;2331;48.806;9.140;2023-01-29T06:24:32;2.50;1.00
4637;DHT22;2331;48.806;9.140;2023-01-29T06:27:00;2.50;1.00
4637;DHT22;2331;48.806;9.140;2023-01-29T06:29:27;2.50;1.00
4637;DHT22;2331;48.806;9.140;2023-01-29T06:31:53;2.40;1.00
4637;DHT22;2331;48.806;9.140;2023-01-29T06:34:20;2.40;1.00
4637;DHT22;2331;48.806;9.140;2023-01-29T06:36:47;2.30;1.00
4637;DHT22;2331;48.806;9.140;2023-01-29T06:39:13;2.20;1.00
4637;DHT22;2331;48.806;9.140;2023-01-29T06:41:40;2.30;1.00
4637;DHT22;2331;48.806;9.140;2023-01-29T06:44:08;2.30;1.00
4637;DHT22;2331;48.806;9.140;2023-01-29T06:46:35;2.40;1.00
4637;DHT22;2331;48.806;9.140;2023-01-29T06:49:01;2.40;1.00
4637;DHT22;2331;48.806;9.140;2023-01-29T06:51:28;2.40;1.00
4637;DHT22;2331;48.806;9.140;2023-01-29T06:53:55;2.40;1.00
4637;DHT22;2331;48.806;9.140;2023-01-29T06:56:22;2.40;1.00
4637;DHT22;2331;48.806;9.140;2023-01-29T06:58:49;2.40;1.00
4637;DHT22;2331;48.806;9.140;2023-01-29T07:01:17;2.30;1.00
4637;DHT22;2331;48.806;9.140;2023-01-29T07:03:43;2.30;1.00
4637;DHT22;2331;48.806;9.140;2023-01-29T07:06:10;2.20;1.00
4637;DHT22;2331;48.806;9.140;2023-01-29T07:08:37;2.20;1.00
4637;DHT22;2331;48.806;9.140;2023-01-29T07:11:05;2.20;1.00
4637;DHT22;2331;48.806;9.140;2023-01-29T07:13:32;2.20;1.00
4637;DHT22;2331;48.806;9.140;2023-01-29T07:15:59;2.20;1.00
4637;DHT22;2331;48.806;9.140;2023-01-29T07:18:28;2.30;1.00
4637;DHT22;2331;48.806;9.140;2023-01-29T07:20:55;2.30;1.00
4637;DHT22;2331;48.806;9.140;2023-01-29T07:23:22;2.30;1.00
4637;DHT22;2331;48.806;9.140;2023-01-29T07:25:49;2.40;1.00
4637;DHT22;2331;48.806;9.140;2023-01-29T07:28:16;2.40;1.00
4637;DHT22;2331;48.806;9.140;2023-01-29T07:30:43;2.40;1.00
4637;DHT22;2331;48.806;9.140;2023-01-29T07:33:10;2.50;1.00
4637;DHT22;2331;48.806;9.140;2023-01-29T07:35:39;2.50;1.00
4637;DHT22;2331;48.806;9.140;2023-01-29T07:38:06;2.40;1.00
4637;DHT22;2331;48.806;9.140;2023-01-29T07:40:33;2.30;1.00
4637;DHT22;2331;48.806;9.140;2023-01-29T07:43:01;2.30;1.00
4637;DHT22;2331;48.806;9.140;2023-01-29T07:45:28;2.20;1.00
4637;DHT22;2331;48.806;9.140;2023-01-29T07:47:56;2.30;1.00
4637;DHT22;2331;48.806;9.140;2023-01-29T07:50:23;2.40;1.00
4637;DHT22;2331;48.806;9.140;2023-01-29T07:52:53;2.50;1.00
4637;DHT22;2331;48.806;9.140;2023-01-29T07:55:20;2.40;1.00
4637;DHT22;2331;48.806;9.140;2023-01-29T07:57:46;2.30;1.00
4637;DHT22;2331;48.806;9.140;2023-01-29T08:00:14;2.40;1.00
4637;DHT22;2331;48.806;9.140;2023-01-29T08:02:41;2.40;1.00
4637;DHT22;2331;48.806;9.140;2023-01-29T08:05:08;2.40;1.00
4637;DHT22;2331;48.806;9.140;2023-01-29T08:07:34;2.40;1.00
4637;DHT22;2331;48.806;9.140;2023-01-29T08:10:03;2.50;1.00
4637;DHT22;2331;48.806;9.140;2023-01-29T08:12:30;2.50;1.00
4637;DHT22;2331;48.806;9.140;2023-01-29T08:14:56;2.60;1.00
4637;DHT22;2331;48.806;9.140;2023-01-29T08:17:23;2.60;1.00
4637;DHT22;2331;48.806;9.140;2023-01-29T08:19:50;2.70;1.00
4637;DHT22;2331;48.806;9.140;2023-01-29T08:22:16;2.60;1.00
4637;DHT22;2331;48.806;9.140;2023-01-29T08:24:43;2.70;1.00
4637;DHT22;2331;48.806;9.140;2023-01-29T08:27:11;2.60;1.00
4637;DHT22;2331;48.806;9.140;2023-01-29T08:29:38;2.60;1.00
4637;DHT22;2331;48.806;9.140;2023-01-29T08:32:08;2.60;1.00
4637;DHT22;2331;48.806;9.140;2023-01-29T08:34:35;2.60;1.00
4637;DHT22;2331;48.806;9.140;2023-01-29T08:37:02;2.60;1.00
4637;DHT22;2331;48.806;9.140;2023-01-29T08:39:29;2.60;1.00
4637;DHT22;2331;48.806;9.140;2023-01-29T08:41:55;2.60;1.00
4637;DHT22;2331;48.806;9.140;2023-01-29T08:44:23;2.60;1.00
4637;DHT22;2331;48.806;9.140;2023-01-29T08:46:50;2.60;1.00
4637;DHT22;2331;48.806;9.140;2023-01-29T08:49:17;2.50;1.00
4637;DHT22;2331;48.806;9.140;2023-01-29T08:51:43;2.60;1.00
4637;DHT22;2331;48.806;9.140;2023-01-29T08:54:10;2.60;1.00
4637;DHT22;2331;48.806;9.140;2023-01-29T08:56:37;2.60;1.00
4637;DHT22;2331;48.806;9.140;2023-01-29T08:59:03;2.70;1.00
4637;DHT22;2331;48.806;9.140;2023-01-29T09:01:31;2.80;1.00
4637;DHT22;2331;48.806;9.140;2023-01-29T09:03:58;2.90;1.00
4637;DHT22;2331;48.806;9.140;2023-01-29T09:06:25;2.90;1.00
4637;DHT22;2331;48.806;9.140;2023-01-29T09:08:51;2.90;1.00
4637;DHT22;2331;48.806;9.140;2023-01-29T09:11:18;2.90;1.00
4637;DHT22;2331;48.806;9.140;2023-01-29T09:13:45;2.90;1.00
4637;DHT22;2331;48.806;9.140;2023-01-29T09:16:11;2.90;1.00
4637;DHT22;2331;48.806;9.140;2023-01-29T09:18:39;3.00;1.00
4637;DHT22;2331;48.806;9.140;2023-01-29T09:21:06;3.10;1.00
4637;DHT22;2331;48.806;9.140;2023-01-29T09:23:33;3.10;1.00
4637;DHT22;2331;48.806;9.140;2023-01-29T09:26:00;3.10;1.00
4637;DHT22;2331;48.806;9.140;2023-01-29T09:28:27;3.20;1.00
4637;DHT22;2331;48.806;9.140;2023-01-29T09:30:53;3.20;1.00
4637;DHT22;2331;48.806;9.140;2023-01-29T09:33:20;3.10;1.00
4637;DHT22;2331;48.806;9.140;2023-01-29T09:35:50;3.10;1.00
4637;DHT22;2331;48.806;9.140;2023-01-29T09:38:17;3.10;1.00
4637;DHT22;2331;48.806;9.140;2023-01-29T09:40:52;3.20;1.00
4637;DHT22;2331;48.806;9.140;2023-01-29T09:43:23;3.20;1.00
4637;DHT22;2331;48.806;9.140;2023-01-29T09:45:54;3.10;1.00
4637;DHT22;2331;48.806;9.140;2023-01-29T09:48:25;3.20;1.00
4637;DHT22;2331;48.806;9.140;2023-01-29T09:50:56;3.20;1.00
4637;DHT22;2331;48.806;9.140;2023-01-29T09:53:28;3.20;1.00
4637;DHT22;2331;48.806;9.140;2023-01-29T09:56:01;3.10;1.00
4637;DHT22;2331;48.806;9.140;2023-01-29T09:58:32;3.20;1.00
4637;DHT22;2331;48.806;9.140;2023-01-29T10:01:08;3.30;1.00
4637;DHT22;2331;48.806;9.140;2023-01-29T10:07:14;3.30;1.00
4637;DHT22;2331;48.806;9.140;2023-01-29T10:10:00;3.50;1.00
4637;DHT22;2331;48.806;9.140;2023-01-29T10:12:43;3.60;1.00
4637;DHT22;2331;48.806;9.140;2023-01-29T10:15:23;3.70;1.00
4637;DHT22;2331;48.806;9.140;2023-01-29T10:18:10;3.70;1.00
4637;DHT22;2331;48.806;9.140;2023-01-29T10:20:51;3.70;1.00
4637;DHT22;2331;48.806;9.140;2023-01-29T10:23:25;3.80;1.00
4637;DHT22;2331;48.806;9.140;2023-01-29T10:25:52;3.80;1.00
4637;DHT22;2331;48.806;9.140;2023-01-29T10:28:24;3.70;1.00
4637;DHT22;2331;48.806;9.140;2023-01-29T10:30:55;3.70;1.00
4637;DHT22;2331;48.806;9.140;2023-01-29T10:33:27;3.80;1.00
4637;DHT22;2331;48.806;9.140;2023-01-29T10:36:00;3.80;1.00
4637;DHT22;2331;48.806;9.140;2023-01-29T10:38:37;3.80;1.00
4637;DHT22;2331;48.806;9.140;2023-01-29T10:41:16;3.80;1.00
4637;DHT22;2331;48.806;9.140;2023-01-29T10:43:54;3.80;1.00
4637;DHT22;2331;48.806;9.140;2023-01-29T10:46:31;3.70;1.00
4637;DHT22;2331;48.806;9.140;2023-01-29T10:49:09;3.70;1.00
4637;DHT22;2331;48.806;9.140;2023-01-29T10:51:55;3.80;1.00
4637;DHT22;2331;48.806;9.140;2023-01-29T10:54:39;3.90;1.00
4637;DHT22;2331;48.806;9.140;2023-01-29T10:57:13;4.00;1.00
4637;DHT22;2331;48.806;9.140;2023-01-29T11:00:00;4.00;1.00
4637;DHT22;2331;48.806;9.140;2023-01-29T11:02:32;3.90;1.00
4637;DHT22;2331;48.806;9.140;2023-01-29T11:04:59;4.00;1.00
4637;DHT22;2331;48.806;9.140;2023-01-29T11:07:26;4.00;1.00
4637;DHT22;2331;48.806;9.140;2023-01-29T11:10:02;4.00;1.00
4637;DHT22;2331;48.806;9.140;2023-01-29T11:12:30;3.90;1.00
4637;DHT22;2331;48.806;9.140;2023-01-29T11:15:01;3.90;1.00
4637;DHT22;2331;48.806;9.140;2023-01-29T11:17:30;3.90;1.00
4637;DHT22;2331;48.806;9.140;2023-01-29T11:19:57;4.00;1.00
4637;DHT22;2331;48.806;9.140;2023-01-29T11:22:25;4.10;1.00
4637;DHT22;2331;48.806;9.140;2023-01-29T11:25:09;4.10;1.00
4637;DHT22;2331;48.806;9.140;2023-01-29T11:27:42;4.10;1.00
4637;DHT22;2331;48.806;9.140;2023-01-29T11:30:15;4.20;1.00
4637;DHT22;2331;48.806;9.140;2023-01-29T11:32:43;4.20;1.00
4637;DHT22;2331;48.806;9.140;2023-01-29T11:35:19;4.30;1.00
4637;DHT22;2331;48.806;9.140;2023-01-29T11:37:47;4.40;1.00
4637;DHT22;2331;48.806;9.140;2023-01-29T11:40:39;4.40;1.00
4637;DHT22;2331;48.806;9.140;2023-01-29T11:43:17;4.20;1.00
4637;DHT22;2331;48.806;9.140;2023-01-29T11:45:45;4.20;1.00
4637;DHT22;2331;48.806;9.140;2023-01-29T11:48:15;4.20;1.00
4637;DHT22;2331;48.806;9.140;2023-01-29T11:50:43;4.20;1.00
4637;DHT22;2331;48.806;9.140;2023-01-29T11:53:33;4.20;1.00
4637;DHT22;2331;48.806;9.140;2023-01-29T11:56:03;4.20;1.00
4637;DHT22;2331;48.806;9.140;2023-01-29T11:58:32;4.30;1.00
4637;DHT22;2331;48.806;9.140;2023-01-29T12:01:00;4.20;1.00
4637;DHT22;2331;48.806;9.140;2023-01-29T12:03:34;4.20;1.00
4637;DHT22;2331;48.806;9.140;2023-01-29T12:06:04;4.30;1.00
4637;DHT22;2331;48.806;9.140;2023-01-29T12:08:34;4.30;1.00
4637;DHT22;2331;48.806;9.140;2023-01-29T12:11:11;4.30;1.00
4637;DHT22;2331;48.806;9.140;2023-01-29T12:13:38;4.40;1.00
4637;DHT22;2331;48.806;9.140;2023-01-29T12:16:22;4.40;1.00
4637;DHT22;2331;48.806;9.140;2023-01-29T12:18:52;4.30;1.00
4637;DHT22;2331;48.806;9.140;2023-01-29T12:21:27;4.30;1.00
4637;DHT22;2331;48.806;9.140;2023-01-29T12:24:01;4.30;1.00
4637;DHT22;2331;48.806;9.140;2023-01-29T12:26:32;4.30;1.00
4637;DHT22;2331;48.806;9.140;2023-01-29T12:29:12;4.30;1.00
4637;DHT22;2331;48.806;9.140;2023-01-29T12:31:47;4.40;1.00
4637;DHT22;2331;48.806;9.140;2023-01-29T12:34:19;4.60;1.00
4637;DHT22;2331;48.806;9.140;2023-01-29T12:36:51;4.60;1.00
4637;DHT22;2331;48.806;9.140;2023-01-29T12:39:20;4.60;1.00
4637;DHT22;2331;48.806;9.140;2023-01-29T12:41:52;4.50;1.00
4637;DHT22;2331;48.806;9.140;2023-01-29T12:44:24;4.50;1.00
4637;DHT22;2331;48.806;9.140;2023-01-29T12:46:57;4.60;1.00
4637;DHT22;2331;48.806;9.140;2023-01-29T12:49:27;4.50;1.00
4637;DHT22;2331;48.806;9.140;2023-01-29T12:51:58;4.60;1.00
4637;DHT22;2331;48.806;9.140;2023-01-29T12:54:37;4.70;1.00
4637;DHT22;2331;48.806;9.140;2023-01-29T12:57:16;4.70;1.00
4637;DHT22;2331;48.806;9.140;2023-01-29T12:59:48;4.70;1.00
4637;DHT22;2331;48.806;9.140;2023-01-29T13:02:31;4.80;1.00
4637;DHT22;2331;48.806;9.140;2023-01-29T13:05:18;4.90;1.00
4637;DHT22;2331;48.806;9.140;2023-01-29T13:07:49;5.00;1.00
4637;DHT22;2331;48.806;9.140;2023-01-29T13:10:22;5.00;1.00
4637;DHT22;2331;48.806;9.140;2023-01-29T13:12:55;5.00;1.00
4637;DHT22;2331;48.806;9.140;2023-01-29T13:15:27;4.90;1.00
4637;DHT22;2331;48.806;9.140;2023-01-29T13:17:58;4.90;1.00
4637;DHT22;2331;48.806;9.140;2023-01-29T13:20:33;5.00;1.00
4637;DHT22;2331;48.806;9.140;2023-01-29T13:23:05;5.10;1.00
4637;DHT22;2331;48.806;9.140;2023-01-29T13:25:39;5.10;1.00
4637;DHT22;2331;48.806;9.140;2023-01-29T13:28:15;5.30;1.00
4637;DHT22;2331;48.806;9.140;2023-01-29T13:30:42;5.20;1.00
4637;DHT22;2331;48.806;9.140;2023-01-29T13:33:20;5.30;1.00
4637;DHT22;2331;48.806;9.140;2023-01-29T13:35:57;5.20;1.00
4637;DHT22;2331;48.806;9.140;2023-01-29T13:38:28;5.20;1.00
4637;DHT22;2331;48.806;9.140;2023-01-29T13:41:04;5.20;1.00
4637;DHT22;2331;48.806;9.140;2023-01-29T13:43:36;5.20;1.00
4637;DHT22;2331;48.806;9.140;2023-01-29T13:46:16;5.20;1.00
4637;DHT22;2331;48.806;9.140;2023-01-29T13:48:47;5.10;1.00
4637;DHT22;2331;48.806;9.140;2023-01-29T13:51:18;5.10;1.00
4637;DHT22;2331;48.806;9.140;2023-01-29T13:53:53;5.00;1.00
4637;DHT22;2331;48.806;9.140;2023-01-29T13:57:01;5.10;1.00
4637;DHT22;2331;48.806;9.140;2023-01-29T13:59:49;5.10;1.00
4637;DHT22;2331;48.806;9.140;2023-01-29T14:02:24;5.10;1.00
4637;DHT22;2331;48.806;9.140;2023-01-29T14:05:37;5.10;1.00
4637;DHT22;2331;48.806;9.140;2023-01-29T14:08:38;5.20;1.00
4637;DHT22;2331;48.806;9.140;2023-01-29T14:11:32;5.20;1.00
4637;DHT22;2331;48.806;9.140;2023-01-29T14:14:00;5.00;1.00
4637;DHT22;2331;48.806;9.140;2023-01-29T14:16:33;5.00;1.00
4637;DHT22;2331;48.806;9.140;2023-01-29T14:19:03;4.90;1.00
4637;DHT22;2331;48.806;9.140;2023-01-29T14:21:33;4.90;1.00
4637;DHT22;2331;48.806;9.140;2023-01-29T14:24:15;4.90;1.00
4637;DHT22;2331;48.806;9.140;2023-01-29T14:26:43;4.80;1.00
4637;DHT22;2331;48.806;9.140;2023-01-29T14:29:18;4.80;1.00
4637;DHT22;2331;48.806;9.140;2023-01-29T14:31:48;4.80;1.00
4637;DHT22;2331;48.806;9.140;2023-01-29T14:34:28;4.80;1.00
4637;DHT22;2331;48.806;9.140;2023-01-29T14:37:19;4.80;1.00
4637;DHT22;2331;48.806;9.140;2023-01-29T14:39:48;4.90;1.00
4637;DHT22;2331;48.806;9.140;2023-01-29T14:42:20;5.00;1.00
4637;DHT22;2331;48.806;9.140;2023-01-29T14:44:59;5.10;1.00
4637;DHT22;2331;48.806;9.140;2023-01-29T14:48:15;5.00;1.00
4637;DHT22;2331;48.806;9.140;2023-01-29T14:50:50;4.80;1.00
4637;DHT22;2331;48.806;9.140;2023-01-29T14:53:26;4.70;1.00
4637;DHT22;2331;48.806;9.140;2023-01-29T14:55:57;4.80;1.00
4637;DHT22;2331;48.806;9.140;2023-01-29T14:58:32;4.90;1.00
4637;DHT22;2331;48.806;9.140;2023-01-29T15:01:01;4.90;1.00
4637;DHT22;2331;48.806;9.140;2023-01-29T15:03:36;4.90;1.00
4637;DHT22;2331;48.806;9.140;2023-01-29T15:06:06;4.90;1.00
4637;DHT22;2331;48.806;9.140;2023-01-29T15:08:39;4.80;1.00
4637;DHT22;2331;48.806;9.140;2023-01-29T15:11:12;4.80;1.00
4637;DHT22;2331;48.806;9.140;2023-01-29T15:14:04;4.80;1.00
4637;DHT22;2331;48.806;9.140;2023-01-29T15:16:43;4.90;1.00
4637;DHT22;2331;48.806;9.140;2023-01-29T15:19:15;4.90;1.00
4637;DHT22;2331;48.806;9.140;2023-01-29T15:22:17;4.90;1.00
4637;DHT22;2331;48.806;9.140;2023-01-29T15:24:46;4.80;1.00
4637;DHT22;2331;48.806;9.140;2023-01-29T15:27:16;4.80;1.00
4637;DHT22;2331;48.806;9.140;2023-01-29T15:29:46;4.70;1.00
4637;DHT22;2331;48.806;9.140;2023-01-29T15:32:17;4.60;1.00
4637;DHT22;2331;48.806;9.140;2023-01-29T15:34:53;4.70;1.00
4637;DHT22;2331;48.806;9.140;2023-01-29T15:37:26;4.60;1.00
4637;DHT22;2331;48.806;9.140;2023-01-29T15:39:55;4.60;1.00
4637;DHT22;2331;48.806;9.140;2023-01-29T15:42:22;4.70;1.00
4637;DHT22;2331;48.806;9.140;2023-01-29T15:44:50;4.70;1.00
4637;DHT22;2331;48.806;9.140;2023-01-29T15:47:19;4.80;1.00
4637;DHT22;2331;48.806;9.140;2023-01-29T15:49:46;4.80;1.00
4637;DHT22;2331;48.806;9.140;2023-01-29T15:52:17;4.70;1.00
4637;DHT22;2331;48.806;9.140;2023-01-29T15:54:46;4.70;1.00
4637;DHT22;2331;48.806;9.140;2023-01-29T15:57:19;4.70;1.00
4637;DHT22;2331;48.806;9.140;2023-01-29T15:59:47;4.70;1.00
4637;DHT22;2331;48.806;9.140;2023-01-29T16:02:37;4.80;1.00
4637;DHT22;2331;48.806;9.140;2023-01-29T16:05:05;4.80;1.00
4637;DHT22;2331;48.806;9.140;2023-01-29T16:07:33;4.90;1.00
4637;DHT22;2331;48.806;9.140;2023-01-29T16:10:02;4.80;1.00
4637;DHT22;2331;48.806;9.140;2023-01-29T16:12:31;4.80;1.00
4637;DHT22;2331;48.806;9.140;2023-01-29T16:14:59;4.80;1.00
4637;DHT22;2331;48.806;9.140;2023-01-29T16:17:30;4.70;1.00
4637;DHT22;2331;48.806;9.140;2023-01-29T16:20:00;4.60;1.00
4637;DHT22;2331;48.806;9.140;2023-01-29T16:22:30;4.60;1.00
4637;DHT22;2331;48.806;9.140;2023-01-29T16:25:01;4.40;1.00
4637;DHT22;2331;48.806;9.140;2023-01-29T16:27:28;4.40;1.00
4637;DHT22;2331;48.806;9.140;2023-01-29T16:30:00;4.40;1.00
4637;DHT22;2331;48.806;9.140;2023-01-29T16:32:28;4.40;1.00
4637;DHT22;2331;48.806;9.140;2023-01-29T16:34:57;4.40;1.00
4637;DHT22;2331;48.806;9.140;2023-01-29T16:37:27;4.40;1.00
4637;DHT22;2331;48.806;9.140;2023-01-29T16:39:55;4.30;1.00
4637;DHT22;2331;48.806;9.140;2023-01-29T16:42:25;4.30;1.00
4637;DHT22;2331;48.806;9.140;2023-01-29T16:44:54;4.20;1.00
4637;DHT22;2331;48.806;9.140;2023-01-29T16:47:33;4.10;1.00
4637;DHT22;2331;48.806;9.140;2023-01-29T16:50:20;4.00;1.00
4637;DHT22;2331;48.806;9.140;2023-01-29T16:52:54;4.00;1.00
4637;DHT22;2331;48.806;9.140;2023-01-29T16:55:24;4.00;1.00
4637;DHT22;2331;48.806;9.140;2023-01-29T16:57:52;3.90;1.00
4637;DHT22;2331;48.806;9.140;2023-01-29T17:00:23;3.90;1.00
4637;DHT22;2331;48.806;9.140;2023-01-29T17:02:54;3.90;1.00
4637;DHT22;2331;48.806;9.140;2023-01-29T17:05:25;3.90;1.00
4637;DHT22;2331;48.806;9.140;2023-01-29T17:07:55;3.80;1.00
4637;DHT22;2331;48.806;9.140;2023-01-29T17:10:23;3.80;1.00